Springdale, Arkansas
Current Conditions -  °F | °C
As of 8:48 PM on Saturday 22 Nov 2014 (Local Time) from KASG Reporting Station
Overcast Overcast  
Wind Chill: 54°   Ceiling: 11000
Heat Index: 54°   Visibility: 7mi
Dew Point: 52°   Wind: 7mph
Humidity: 94%   Direction: 160°SSE
Pressure: 29.88"   Gusts: NA
Location:  36.19°N, 94.13°W
Report Text: KASG 230248Z 16006KT 7SM OVC110 12/11 A2988
Loading
Personal Weather Stations






























Interactive Weather Map New forecast layout! Learn more

10-Day Weather Forecast

Advertisements
Track Severe Weather on mobile